sensor_id;sensor_type;location;lat;lon;timestamp;P1;durP1;ratioP1;P2;durP2;ratioP2
22679;SDS011;11507;44.858;10.374;2024-03-08T00:00:15;21.67;;;11.77;;
22679;SDS011;11507;44.858;10.374;2024-03-08T00:02:47;20.85;;;11.43;;
22679;SDS011;11507;44.858;10.374;2024-03-08T00:05:15;16.77;;;10.18;;
22679;SDS011;11507;44.858;10.374;2024-03-08T00:07:43;18.50;;;11.43;;
22679;SDS011;11507;44.858;10.374;2024-03-08T00:10:10;22.85;;;11.95;;
22679;SDS011;11507;44.858;10.374;2024-03-08T00:12:41;26.02;;;13.85;;
22679;SDS011;11507;44.858;10.374;2024-03-08T00:15:09;27.15;;;14.55;;
22679;SDS011;11507;44.858;10.374;2024-03-08T00:17:39;27.75;;;14.73;;
22679;SDS011;11507;44.858;10.374;2024-03-08T00:20:07;26.73;;;14.95;;
22679;SDS011;11507;44.858;10.374;2024-03-08T00:22:37;28.05;;;15.35;;
22679;SDS011;11507;44.858;10.374;2024-03-08T00:25:04;30.80;;;15.80;;
22679;SDS011;11507;44.858;10.374;2024-03-08T00:27:37;24.90;;;14.73;;
22679;SDS011;11507;44.858;10.374;2024-03-08T00:30:04;29.48;;;16.73;;
22679;SDS011;11507;44.858;10.374;2024-03-08T00:32:31;30.52;;;18.02;;
22679;SDS011;11507;44.858;10.374;2024-03-08T00:34:57;28.65;;;17.48;;
22679;SDS011;11507;44.858;10.374;2024-03-08T00:37:23;36.25;;;16.83;;
22679;SDS011;11507;44.858;10.374;2024-03-08T00:39:50;26.70;;;15.75;;
22679;SDS011;11507;44.858;10.374;2024-03-08T00:42:17;30.63;;;16.88;;
22679;SDS011;11507;44.858;10.374;2024-03-08T00:44:45;29.58;;;15.85;;
22679;SDS011;11507;44.858;10.374;2024-03-08T00:47:12;30.23;;;16.27;;
22679;SDS011;11507;44.858;10.374;2024-03-08T00:49:38;27.73;;;15.70;;
22679;SDS011;11507;44.858;10.374;2024-03-08T00:52:06;31.17;;;16.33;;
22679;SDS011;11507;44.858;10.374;2024-03-08T00:54:36;29.10;;;16.15;;
22679;SDS011;11507;44.858;10.374;2024-03-08T00:57:03;30.85;;;15.98;;
22679;SDS011;11507;44.858;10.374;2024-03-08T00:59:30;30.77;;;16.52;;
22679;SDS011;11507;44.858;10.374;2024-03-08T01:01:59;31.02;;;16.27;;
22679;SDS011;11507;44.858;10.374;2024-03-08T01:04:26;27.85;;;15.85;;
22679;SDS011;11507;44.858;10.374;2024-03-08T01:06:56;32.13;;;15.93;;
22679;SDS011;11507;44.858;10.374;2024-03-08T01:09:26;26.50;;;14.98;;
22679;SDS011;11507;44.858;10.374;2024-03-08T01:11:55;26.23;;;14.70;;
22679;SDS011;11507;44.858;10.374;2024-03-08T01:14:22;27.40;;;15.25;;
22679;SDS011;11507;44.858;10.374;2024-03-08T01:16:50;28.60;;;15.68;;
22679;SDS011;11507;44.858;10.374;2024-03-08T01:19:17;28.00;;;15.50;;
22679;SDS011;11507;44.858;10.374;2024-03-08T01:21:43;26.27;;;15.18;;
22679;SDS011;11507;44.858;10.374;2024-03-08T01:24:09;29.08;;;15.13;;
22679;SDS011;11507;44.858;10.374;2024-03-08T01:26:36;27.48;;;15.38;;
22679;SDS011;11507;44.858;10.374;2024-03-08T01:29:02;33.45;;;16.85;;
22679;SDS011;11507;44.858;10.374;2024-03-08T01:31:29;28.45;;;14.93;;
22679;SDS011;11507;44.858;10.374;2024-03-08T01:33:56;31.02;;;16.00;;
22679;SDS011;11507;44.858;10.374;2024-03-08T01:36:23;30.02;;;15.75;;
22679;SDS011;11507;44.858;10.374;2024-03-08T01:38:50;32.65;;;16.38;;
22679;SDS011;11507;44.858;10.374;2024-03-08T01:41:17;29.73;;;16.10;;
22679;SDS011;11507;44.858;10.374;2024-03-08T01:43:44;30.60;;;16.73;;
22679;SDS011;11507;44.858;10.374;2024-03-08T01:46:11;34.35;;;17.67;;
22679;SDS011;11507;44.858;10.374;2024-03-08T01:48:41;32.22;;;16.75;;
22679;SDS011;11507;44.858;10.374;2024-03-08T01:51:08;34.03;;;17.10;;
22679;SDS011;11507;44.858;10.374;2024-03-08T01:53:37;30.58;;;16.90;;
22679;SDS011;11507;44.858;10.374;2024-03-08T01:56:04;34.33;;;17.77;;
22679;SDS011;11507;44.858;10.374;2024-03-08T01:58:32;37.45;;;18.58;;
22679;SDS011;11507;44.858;10.374;2024-03-08T02:00:58;28.98;;;16.60;;
22679;SDS011;11507;44.858;10.374;2024-03-08T02:03:25;32.28;;;17.65;;
22679;SDS011;11507;44.858;10.374;2024-03-08T02:05:52;36.92;;;18.30;;
22679;SDS011;11507;44.858;10.374;2024-03-08T02:08:18;33.38;;;17.00;;
22679;SDS011;11507;44.858;10.374;2024-03-08T02:10:52;32.00;;;15.75;;
22679;SDS011;11507;44.858;10.374;2024-03-08T02:13:18;33.90;;;17.45;;
22679;SDS011;11507;44.858;10.374;2024-03-08T02:15:55;33.58;;;17.63;;
22679;SDS011;11507;44.858;10.374;2024-03-08T02:18:30;36.20;;;17.90;;
22679;SDS011;11507;44.858;10.374;2024-03-08T02:21:00;36.58;;;17.40;;
22679;SDS011;11507;44.858;10.374;2024-03-08T02:23:51;33.67;;;16.55;;
22679;SDS011;11507;44.858;10.374;2024-03-08T02:26:18;30.95;;;16.38;;
22679;SDS011;11507;44.858;10.374;2024-03-08T02:28:45;35.38;;;17.10;;
22679;SDS011;11507;44.858;10.374;2024-03-08T02:31:12;31.90;;;16.80;;
22679;SDS011;11507;44.858;10.374;2024-03-08T02:33:43;37.63;;;18.60;;
22679;SDS011;11507;44.858;10.374;2024-03-08T02:36:13;35.63;;;17.52;;
22679;SDS011;11507;44.858;10.374;2024-03-08T02:38:39;35.92;;;18.13;;
22679;SDS011;11507;44.858;10.374;2024-03-08T02:41:08;40.90;;;18.60;;
22679;SDS011;11507;44.858;10.374;2024-03-08T02:43:35;39.50;;;19.25;;
22679;SDS011;11507;44.858;10.374;2024-03-08T02:46:02;38.53;;;18.52;;
22679;SDS011;11507;44.858;10.374;2024-03-08T02:48:30;35.83;;;18.35;;
22679;SDS011;11507;44.858;10.374;2024-03-08T02:50:57;39.40;;;19.10;;
22679;SDS011;11507;44.858;10.374;2024-03-08T02:53:23;37.67;;;19.42;;
22679;SDS011;11507;44.858;10.374;2024-03-08T02:55:50;41.45;;;20.80;;
22679;SDS011;11507;44.858;10.374;2024-03-08T02:58:16;38.78;;;20.40;;
22679;SDS011;11507;44.858;10.374;2024-03-08T03:00:42;38.08;;;19.15;;
22679;SDS011;11507;44.858;10.374;2024-03-08T03:03:09;39.78;;;20.58;;
22679;SDS011;11507;44.858;10.374;2024-03-08T03:05:35;39.42;;;20.70;;
22679;SDS011;11507;44.858;10.374;2024-03-08T03:08:02;39.70;;;19.65;;
22679;SDS011;11507;44.858;10.374;2024-03-08T03:10:34;36.03;;;19.20;;
22679;SDS011;11507;44.858;10.374;2024-03-08T03:13:01;42.30;;;20.10;;
22679;SDS011;11507;44.858;10.374;2024-03-08T03:15:27;37.42;;;19.55;;
22679;SDS011;11507;44.858;10.374;2024-03-08T03:17:54;39.45;;;19.30;;
22679;SDS011;11507;44.858;10.374;2024-03-08T03:20:20;35.42;;;19.20;;
22679;SDS011;11507;44.858;10.374;2024-03-08T03:22:52;35.30;;;18.73;;
22679;SDS011;11507;44.858;10.374;2024-03-08T03:25:22;34.80;;;17.65;;
22679;SDS011;11507;44.858;10.374;2024-03-08T03:27:54;39.50;;;19.83;;
22679;SDS011;11507;44.858;10.374;2024-03-08T03:30:23;36.95;;;19.55;;
22679;SDS011;11507;44.858;10.374;2024-03-08T03:32:59;41.67;;;21.50;;
22679;SDS011;11507;44.858;10.374;2024-03-08T03:35:27;38.20;;;20.60;;
22679;SDS011;11507;44.858;10.374;2024-03-08T03:37:54;40.90;;;21.38;;
22679;SDS011;11507;44.858;10.374;2024-03-08T03:43:51;36.95;;;19.55;;
22679;SDS011;11507;44.858;10.374;2024-03-08T03:46:18;36.63;;;19.77;;
22679;SDS011;11507;44.858;10.374;2024-03-08T03:48:44;39.17;;;20.90;;
22679;SDS011;11507;44.858;10.374;2024-03-08T03:51:14;35.42;;;18.40;;
22679;SDS011;11507;44.858;10.374;2024-03-08T03:53:44;36.78;;;19.25;;
22679;SDS011;11507;44.858;10.374;2024-03-08T03:56:10;34.35;;;18.23;;
22679;SDS011;11507;44.858;10.374;2024-03-08T03:58:37;37.15;;;19.60;;
22679;SDS011;11507;44.858;10.374;2024-03-08T04:01:08;35.78;;;19.55;;
22679;SDS011;11507;44.858;10.374;2024-03-08T04:03:36;34.78;;;18.25;;
22679;SDS011;11507;44.858;10.374;2024-03-08T04:06:04;37.22;;;19.77;;
22679;SDS011;11507;44.858;10.374;2024-03-08T04:08:30;32.00;;;17.15;;
22679;SDS011;11507;44.858;10.374;2024-03-08T04:11:00;29.45;;;16.05;;
22679;SDS011;11507;44.858;10.374;2024-03-08T04:13:27;31.95;;;16.27;;
22679;SDS011;11507;44.858;10.374;2024-03-08T04:15:53;32.22;;;16.23;;
22679;SDS011;11507;44.858;10.374;2024-03-08T04:18:20;33.47;;;18.17;;
22679;SDS011;11507;44.858;10.374;2024-03-08T04:20:46;39.15;;;19.50;;
22679;SDS011;11507;44.858;10.374;2024-03-08T04:23:13;40.90;;;20.67;;
22679;SDS011;11507;44.858;10.374;2024-03-08T04:25:39;37.65;;;19.52;;
22679;SDS011;11507;44.858;10.374;2024-03-08T04:28:08;41.47;;;20.63;;
22679;SDS011;11507;44.858;10.374;2024-03-08T04:30:37;35.60;;;18.63;;
22679;SDS011;11507;44.858;10.374;2024-03-08T04:33:05;33.63;;;18.20;;
22679;SDS011;11507;44.858;10.374;2024-03-08T04:35:34;34.75;;;18.38;;
22679;SDS011;11507;44.858;10.374;2024-03-08T04:38:00;37.75;;;20.13;;
22679;SDS011;11507;44.858;10.374;2024-03-08T04:40:26;36.95;;;18.88;;
22679;SDS011;11507;44.858;10.374;2024-03-08T04:42:53;41.75;;;21.20;;
22679;SDS011;11507;44.858;10.374;2024-03-08T04:45:19;40.97;;;20.30;;
22679;SDS011;11507;44.858;10.374;2024-03-08T04:47:47;45.15;;;21.63;;
22679;SDS011;11507;44.858;10.374;2024-03-08T04:50:13;43.33;;;22.48;;
22679;SDS011;11507;44.858;10.374;2024-03-08T04:52:39;44.45;;;23.38;;
22679;SDS011;11507;44.858;10.374;2024-03-08T04:55:07;44.88;;;21.92;;
22679;SDS011;11507;44.858;10.374;2024-03-08T04:57:34;41.80;;;22.13;;
22679;SDS011;11507;44.858;10.374;2024-03-08T05:00:03;45.15;;;22.45;;
22679;SDS011;11507;44.858;10.374;2024-03-08T05:02:36;41.88;;;21.40;;
22679;SDS011;11507;44.858;10.374;2024-03-08T05:05:07;45.95;;;22.92;;
22679;SDS011;11507;44.858;10.374;2024-03-08T05:07:42;49.05;;;23.05;;
22679;SDS011;11507;44.858;10.374;2024-03-08T05:10:11;44.80;;;22.52;;
22679;SDS011;11507;44.858;10.374;2024-03-08T05:12:37;48.13;;;22.52;;
22679;SDS011;11507;44.858;10.374;2024-03-08T05:15:06;44.30;;;22.60;;
22679;SDS011;11507;44.858;10.374;2024-03-08T05:17:33;44.42;;;23.30;;
22679;SDS011;11507;44.858;10.374;2024-03-08T05:20:00;46.88;;;22.95;;
22679;SDS011;11507;44.858;10.374;2024-03-08T05:22:26;49.20;;;24.23;;
22679;SDS011;11507;44.858;10.374;2024-03-08T05:24:53;48.53;;;24.00;;
22679;SDS011;11507;44.858;10.374;2024-03-08T05:27:21;53.97;;;26.65;;
22679;SDS011;11507;44.858;10.374;2024-03-08T05:29:47;57.40;;;27.20;;
22679;SDS011;11507;44.858;10.374;2024-03-08T05:32:14;57.38;;;27.08;;
22679;SDS011;11507;44.858;10.374;2024-03-08T05:34:41;59.25;;;27.00;;
22679;SDS011;11507;44.858;10.374;2024-03-08T05:37:08;49.92;;;24.27;;
22679;SDS011;11507;44.858;10.374;2024-03-08T05:39:35;47.47;;;24.73;;
22679;SDS011;11507;44.858;10.374;2024-03-08T05:42:01;52.75;;;24.95;;
22679;SDS011;11507;44.858;10.374;2024-03-08T05:44:28;59.42;;;26.98;;
22679;SDS011;11507;44.858;10.374;2024-03-08T05:46:56;50.85;;;24.38;;
22679;SDS011;11507;44.858;10.374;2024-03-08T05:49:22;57.88;;;26.20;;
22679;SDS011;11507;44.858;10.374;2024-03-08T05:51:50;62.72;;;28.63;;
22679;SDS011;11507;44.858;10.374;2024-03-08T05:54:16;63.03;;;29.95;;
22679;SDS011;11507;44.858;10.374;2024-03-08T05:56:43;68.90;;;29.77;;
22679;SDS011;11507;44.858;10.374;2024-03-08T05:59:09;66.75;;;29.92;;
22679;SDS011;11507;44.858;10.374;2024-03-08T06:01:36;69.30;;;30.75;;
22679;SDS011;11507;44.858;10.374;2024-03-08T06:04:03;68.22;;;30.15;;
22679;SDS011;11507;44.858;10.374;2024-03-08T06:06:29;69.90;;;30.70;;
22679;SDS011;11507;44.858;10.374;2024-03-08T06:08:56;66.93;;;30.25;;
22679;SDS011;11507;44.858;10.374;2024-03-08T06:11:24;73.18;;;31.45;;
22679;SDS011;11507;44.858;10.374;2024-03-08T06:13:53;65.13;;;29.77;;
22679;SDS011;11507;44.858;10.374;2024-03-08T06:16:28;70.10;;;30.85;;
22679;SDS011;11507;44.858;10.374;2024-03-08T06:18:57;73.88;;;30.95;;
22679;SDS011;11507;44.858;10.374;2024-03-08T06:21:24;70.43;;;29.70;;
22679;SDS011;11507;44.858;10.374;2024-03-08T06:23:55;66.35;;;31.15;;
22679;SDS011;11507;44.858;10.374;2024-03-08T06:26:23;67.47;;;29.55;;
22679;SDS011;11507;44.858;10.374;2024-03-08T06:28:50;67.97;;;28.85;;
22679;SDS011;11507;44.858;10.374;2024-03-08T06:31:16;66.53;;;29.33;;
22679;SDS011;11507;44.858;10.374;2024-03-08T06:33:42;62.92;;;27.42;;
22679;SDS011;11507;44.858;10.374;2024-03-08T06:36:09;64.07;;;28.75;;
22679;SDS011;11507;44.858;10.374;2024-03-08T06:38:37;62.70;;;28.05;;
22679;SDS011;11507;44.858;10.374;2024-03-08T06:41:08;62.05;;;27.83;;
22679;SDS011;11507;44.858;10.374;2024-03-08T06:43:40;57.75;;;27.13;;
22679;SDS011;11507;44.858;10.374;2024-03-08T06:46:10;56.78;;;27.13;;
22679;SDS011;11507;44.858;10.374;2024-03-08T06:48:39;54.72;;;26.42;;
22679;SDS011;11507;44.858;10.374;2024-03-08T06:51:06;52.38;;;25.00;;
22679;SDS011;11507;44.858;10.374;2024-03-08T06:53:32;52.90;;;24.67;;
22679;SDS011;11507;44.858;10.374;2024-03-08T06:56:00;51.22;;;23.83;;
22679;SDS011;11507;44.858;10.374;2024-03-08T06:58:27;52.25;;;24.65;;
22679;SDS011;11507;44.858;10.374;2024-03-08T07:00:54;49.30;;;24.25;;
22679;SDS011;11507;44.858;10.374;2024-03-08T07:03:23;48.95;;;23.73;;
22679;SDS011;11507;44.858;10.374;2024-03-08T07:05:50;47.40;;;24.60;;
22679;SDS011;11507;44.858;10.374;2024-03-08T07:08:16;42.67;;;21.83;;
22679;SDS011;11507;44.858;10.374;2024-03-08T07:10:44;43.70;;;22.58;;
22679;SDS011;11507;44.858;10.374;2024-03-08T07:13:10;40.13;;;21.70;;
22679;SDS011;11507;44.858;10.374;2024-03-08T07:15:37;43.60;;;21.52;;
22679;SDS011;11507;44.858;10.374;2024-03-08T07:18:03;47.15;;;21.25;;
22679;SDS011;11507;44.858;10.374;2024-03-08T07:20:29;39.58;;;20.42;;
22679;SDS011;11507;44.858;10.374;2024-03-08T07:22:55;40.15;;;21.73;;
22679;SDS011;11507;44.858;10.374;2024-03-08T07:25:22;42.65;;;21.15;;
22679;SDS011;11507;44.858;10.374;2024-03-08T07:27:49;37.70;;;20.48;;
22679;SDS011;11507;44.858;10.374;2024-03-08T07:30:18;41.20;;;21.10;;
22679;SDS011;11507;44.858;10.374;2024-03-08T07:33:03;34.72;;;20.52;;
22679;SDS011;11507;44.858;10.374;2024-03-08T07:35:30;35.97;;;20.42;;
22679;SDS011;11507;44.858;10.374;2024-03-08T07:37:56;34.80;;;19.73;;
22679;SDS011;11507;44.858;10.374;2024-03-08T07:40:25;37.20;;;20.45;;
22679;SDS011;11507;44.858;10.374;2024-03-08T07:42:52;34.22;;;19.55;;
22679;SDS011;11507;44.858;10.374;2024-03-08T07:45:18;31.67;;;18.40;;
22679;SDS011;11507;44.858;10.374;2024-03-08T07:47:44;31.25;;;17.95;;
22679;SDS011;11507;44.858;10.374;2024-03-08T07:50:11;29.23;;;16.73;;
22679;SDS011;11507;44.858;10.374;2024-03-08T07:52:41;30.25;;;17.02;;
22679;SDS011;11507;44.858;10.374;2024-03-08T07:55:08;30.35;;;16.45;;
22679;SDS011;11507;44.858;10.374;2024-03-08T07:57:35;31.52;;;16.63;;
22679;SDS011;11507;44.858;10.374;2024-03-08T08:00:05;27.58;;;15.90;;
22679;SDS011;11507;44.858;10.374;2024-03-08T08:02:35;30.00;;;16.38;;
22679;SDS011;11507;44.858;10.374;2024-03-08T08:05:01;30.95;;;17.33;;
22679;SDS011;11507;44.858;10.374;2024-03-08T08:07:29;28.52;;;15.82;;
22679;SDS011;11507;44.858;10.374;2024-03-08T08:09:55;26.52;;;15.77;;
22679;SDS011;11507;44.858;10.374;2024-03-08T08:12:22;30.35;;;16.35;;
22679;SDS011;11507;44.858;10.374;2024-03-08T08:14:48;25.85;;;16.15;;
22679;SDS011;11507;44.858;10.374;2024-03-08T08:17:16;27.75;;;15.43;;
22679;SDS011;11507;44.858;10.374;2024-03-08T08:19:42;27.25;;;15.43;;
22679;SDS011;11507;44.858;10.374;2024-03-08T08:22:10;27.30;;;15.45;;
22679;SDS011;11507;44.858;10.374;2024-03-08T08:24:36;27.05;;;15.27;;
22679;SDS011;11507;44.858;10.374;2024-03-08T08:27:03;24.50;;;15.43;;
22679;SDS011;11507;44.858;10.374;2024-03-08T08:29:30;24.65;;;13.82;;
22679;SDS011;11507;44.858;10.374;2024-03-08T08:31:59;22.55;;;13.88;;
22679;SDS011;11507;44.858;10.374;2024-03-08T08:34:26;23.83;;;13.95;;
22679;SDS011;11507;44.858;10.374;2024-03-08T08:36:52;21.25;;;13.82;;
22679;SDS011;11507;44.858;10.374;2024-03-08T08:39:20;23.23;;;13.70;;
22679;SDS011;11507;44.858;10.374;2024-03-08T08:41:48;23.55;;;13.80;;
22679;SDS011;11507;44.858;10.374;2024-03-08T08:44:14;21.50;;;13.02;;
22679;SDS011;11507;44.858;10.374;2024-03-08T08:46:42;19.95;;;13.00;;
22679;SDS011;11507;44.858;10.374;2024-03-08T08:49:08;22.10;;;13.32;;
22679;SDS011;11507;44.858;10.374;2024-03-08T08:51:36;22.40;;;13.88;;
22679;SDS011;11507;44.858;10.374;2024-03-08T08:54:03;20.33;;;13.35;;
22679;SDS011;11507;44.858;10.374;2024-03-08T08:56:32;22.25;;;12.93;;
22679;SDS011;11507;44.858;10.374;2024-03-08T08:58:59;21.55;;;13.15;;
22679;SDS011;11507;44.858;10.374;2024-03-08T09:01:25;18.60;;;12.40;;
22679;SDS011;11507;44.858;10.374;2024-03-08T09:03:52;22.45;;;12.57;;
22679;SDS011;11507;44.858;10.374;2024-03-08T09:06:19;20.98;;;12.52;;
22679;SDS011;11507;44.858;10.374;2024-03-08T09:08:45;19.13;;;12.27;;
22679;SDS011;11507;44.858;10.374;2024-03-08T09:11:12;18.20;;;11.27;;
22679;SDS011;11507;44.858;10.374;2024-03-08T09:13:38;18.13;;;11.45;;
22679;SDS011;11507;44.858;10.374;2024-03-08T09:16:04;17.67;;;11.43;;
22679;SDS011;11507;44.858;10.374;2024-03-08T09:18:32;15.98;;;10.52;;
22679;SDS011;11507;44.858;10.374;2024-03-08T09:20:58;19.33;;;11.63;;
22679;SDS011;11507;44.858;10.374;2024-03-08T09:23:25;17.88;;;11.00;;
22679;SDS011;11507;44.858;10.374;2024-03-08T09:25:56;19.55;;;10.60;;
22679;SDS011;11507;44.858;10.374;2024-03-08T09:28:25;16.77;;;10.10;;
22679;SDS011;11507;44.858;10.374;2024-03-08T09:30:52;18.13;;;10.88;;
22679;SDS011;11507;44.858;10.374;2024-03-08T09:33:20;16.90;;;10.93;;
22679;SDS011;11507;44.858;10.374;2024-03-08T09:35:47;18.50;;;11.07;;
22679;SDS011;11507;44.858;10.374;2024-03-08T09:38:14;19.55;;;10.25;;
22679;SDS011;11507;44.858;10.374;2024-03-08T09:40:41;16.70;;;10.43;;
22679;SDS011;11507;44.858;10.374;2024-03-08T09:43:07;18.52;;;10.85;;
22679;SDS011;11507;44.858;10.374;2024-03-08T09:45:37;14.85;;;10.40;;
22679;SDS011;11507;44.858;10.374;2024-03-08T09:48:06;14.48;;;9.93;;
22679;SDS011;11507;44.858;10.374;2024-03-08T09:50:42;16.17;;;9.85;;
22679;SDS011;11507;44.858;10.374;2024-03-08T09:53:10;16.50;;;10.57;;
22679;SDS011;11507;44.858;10.374;2024-03-08T09:55:37;16.88;;;9.85;;
22679;SDS011;11507;44.858;10.374;2024-03-08T09:58:15;14.13;;;9.95;;
22679;SDS011;11507;44.858;10.374;2024-03-08T10:00:52;14.30;;;9.73;;
22679;SDS011;11507;44.858;10.374;2024-03-08T10:03:19;13.90;;;9.48;;
22679;SDS011;11507;44.858;10.374;2024-03-08T10:05:45;16.27;;;9.90;;
22679;SDS011;11507;44.858;10.374;2024-03-08T10:08:12;16.65;;;10.07;;
22679;SDS011;11507;44.858;10.374;2024-03-08T10:10:38;17.55;;;10.13;;
22679;SDS011;11507;44.858;10.374;2024-03-08T10:13:09;15.27;;;10.23;;
22679;SDS011;11507;44.858;10.374;2024-03-08T10:15:39;16.48;;;9.82;;
22679;SDS011;11507;44.858;10.374;2024-03-08T10:18:06;15.65;;;10.15;;
22679;SDS011;11507;44.858;10.374;2024-03-08T10:20:32;16.73;;;9.80;;
22679;SDS011;11507;44.858;10.374;2024-03-08T10:23:03;17.60;;;10.57;;
22679;SDS011;11507;44.858;10.374;2024-03-08T10:25:31;18.10;;;10.43;;
22679;SDS011;11507;44.858;10.374;2024-03-08T10:27:57;16.50;;;9.88;;
22679;SDS011;11507;44.858;10.374;2024-03-08T10:30:24;17.02;;;10.77;;
22679;SDS011;11507;44.858;10.374;2024-03-08T10:32:53;24.90;;;14.50;;
22679;SDS011;11507;44.858;10.374;2024-03-08T10:35:19;21.42;;;13.05;;
22679;SDS011;11507;44.858;10.374;2024-03-08T10:37:49;20.75;;;12.80;;
22679;SDS011;11507;44.858;10.374;2024-03-08T10:40:24;18.77;;;11.63;;
22679;SDS011;11507;44.858;10.374;2024-03-08T10:42:52;17.05;;;11.00;;
22679;SDS011;11507;44.858;10.374;2024-03-08T10:45:37;15.88;;;10.35;;
22679;SDS011;11507;44.858;10.374;2024-03-08T10:50:53;14.88;;;10.02;;
22679;SDS011;11507;44.858;10.374;2024-03-08T10:53:21;15.18;;;9.93;;
22679;SDS011;11507;44.858;10.374;2024-03-08T10:55:49;15.63;;;9.60;;
22679;SDS011;11507;44.858;10.374;2024-03-08T10:58:21;15.32;;;10.00;;
22679;SDS011;11507;44.858;10.374;2024-03-08T11:00:55;17.25;;;10.75;;
22679;SDS011;11507;44.858;10.374;2024-03-08T11:03:55;17.60;;;11.27;;
22679;SDS011;11507;44.858;10.374;2024-03-08T11:08:49;22.85;;;11.93;;
22679;SDS011;11507;44.858;10.374;2024-03-08T11:11:24;17.98;;;11.25;;
22679;SDS011;11507;44.858;10.374;2024-03-08T11:13:58;15.88;;;11.30;;
22679;SDS011;11507;44.858;10.374;2024-03-08T11:19:00;16.52;;;11.07;;
22679;SDS011;11507;44.858;10.374;2024-03-08T11:21:31;15.85;;;11.00;;
22679;SDS011;11507;44.858;10.374;2024-03-08T11:24:10;14.98;;;10.13;;
22679;SDS011;11507;44.858;10.374;2024-03-08T11:26:39;13.82;;;9.95;;
22679;SDS011;11507;44.858;10.374;2024-03-08T11:32:11;15.40;;;9.70;;
22679;SDS011;11507;44.858;10.374;2024-03-08T11:34:45;13.98;;;9.30;;
22679;SDS011;11507;44.858;10.374;2024-03-08T11:37:13;15.27;;;9.75;;
22679;SDS011;11507;44.858;10.374;2024-03-08T11:39:48;13.57;;;9.20;;
22679;SDS011;11507;44.858;10.374;2024-03-08T11:42:21;12.55;;;9.43;;
22679;SDS011;11507;44.858;10.374;2024-03-08T11:44:47;13.35;;;9.73;;
22679;SDS011;11507;44.858;10.374;2024-03-08T11:47:16;14.48;;;9.00;;
22679;SDS011;11507;44.858;10.374;2024-03-08T11:49:42;13.98;;;9.75;;
22679;SDS011;11507;44.858;10.374;2024-03-08T11:52:13;13.52;;;9.15;;
22679;SDS011;11507;44.858;10.374;2024-03-08T11:54:41;13.32;;;8.35;;
22679;SDS011;11507;44.858;10.374;2024-03-08T11:57:08;15.77;;;9.50;;
22679;SDS011;11507;44.858;10.374;2024-03-08T11:59:38;16.67;;;9.57;;
22679;SDS011;11507;44.858;10.374;2024-03-08T12:02:04;12.07;;;8.00;;
22679;SDS011;11507;44.858;10.374;2024-03-08T12:04:32;12.65;;;8.48;;
22679;SDS011;11507;44.858;10.374;2024-03-08T12:07:02;13.77;;;8.65;;
22679;SDS011;11507;44.858;10.374;2024-03-08T12:09:35;14.15;;;9.13;;
22679;SDS011;11507;44.858;10.374;2024-03-08T12:12:02;12.95;;;8.80;;
22679;SDS011;11507;44.858;10.374;2024-03-08T12:14:30;13.40;;;8.90;;
22679;SDS011;11507;44.858;10.374;2024-03-08T12:16:57;12.70;;;9.00;;
22679;SDS011;11507;44.858;10.374;2024-03-08T12:19:23;12.20;;;9.38;;
22679;SDS011;11507;44.858;10.374;2024-03-08T12:21:50;14.65;;;9.32;;
22679;SDS011;11507;44.858;10.374;2024-03-08T12:24:16;13.05;;;8.75;;
22679;SDS011;11507;44.858;10.374;2024-03-08T12:26:46;15.40;;;9.07;;
22679;SDS011;11507;44.858;10.374;2024-03-08T12:29:17;13.70;;;9.35;;
22679;SDS011;11507;44.858;10.374;2024-03-08T12:31:51;13.85;;;9.15;;
22679;SDS011;11507;44.858;10.374;2024-03-08T12:34:24;17.33;;;9.23;;
22679;SDS011;11507;44.858;10.374;2024-03-08T12:36:52;14.07;;;9.52;;
22679;SDS011;11507;44.858;10.374;2024-03-08T12:39:19;15.98;;;10.15;;
22679;SDS011;11507;44.858;10.374;2024-03-08T12:41:53;18.58;;;9.07;;
22679;SDS011;11507;44.858;10.374;2024-03-08T12:44:22;14.98;;;8.93;;
22679;SDS011;11507;44.858;10.374;2024-03-08T12:46:48;16.05;;;9.65;;
22679;SDS011;11507;44.858;10.374;2024-03-08T12:49:16;13.57;;;8.93;;
22679;SDS011;11507;44.858;10.374;2024-03-08T12:51:46;14.73;;;8.63;;
22679;SDS011;11507;44.858;10.374;2024-03-08T12:54:12;14.45;;;8.95;;
22679;SDS011;11507;44.858;10.374;2024-03-08T12:56:38;14.75;;;9.13;;
22679;SDS011;11507;44.858;10.374;2024-03-08T12:59:06;12.75;;;9.75;;
22679;SDS011;11507;44.858;10.374;2024-03-08T13:01:33;13.00;;;9.35;;
22679;SDS011;11507;44.858;10.374;2024-03-08T13:04:03;15.75;;;10.02;;
22679;SDS011;11507;44.858;10.374;2024-03-08T13:06:31;14.52;;;9.75;;
22679;SDS011;11507;44.858;10.374;2024-03-08T13:08:58;14.25;;;9.63;;
22679;SDS011;11507;44.858;10.374;2024-03-08T13:11:26;15.38;;;10.10;;
22679;SDS011;11507;44.858;10.374;2024-03-08T13:13:52;16.17;;;10.15;;
22679;SDS011;11507;44.858;10.374;2024-03-08T13:16:19;14.77;;;9.95;;
22679;SDS011;11507;44.858;10.374;2024-03-08T13:18:45;18.27;;;10.43;;
22679;SDS011;11507;44.858;10.374;2024-03-08T13:21:15;14.02;;;9.43;;
22679;SDS011;11507;44.858;10.374;2024-03-08T13:23:45;15.33;;;10.00;;
22679;SDS011;11507;44.858;10.374;2024-03-08T13:26:15;16.08;;;10.52;;
22679;SDS011;11507;44.858;10.374;2024-03-08T13:28:45;14.48;;;10.45;;
22679;SDS011;11507;44.858;10.374;2024-03-08T13:31:14;15.43;;;10.20;;
22679;SDS011;11507;44.858;10.374;2024-03-08T13:33:40;13.23;;;9.68;;
22679;SDS011;11507;44.858;10.374;2024-03-08T13:36:12;16.38;;;10.40;;
22679;SDS011;11507;44.858;10.374;2024-03-08T13:38:42;14.27;;;10.15;;
22679;SDS011;11507;44.858;10.374;2024-03-08T13:41:13;17.05;;;9.70;;
22679;SDS011;11507;44.858;10.374;2024-03-08T13:43:42;16.45;;;10.13;;
22679;SDS011;11507;44.858;10.374;2024-03-08T13:46:10;15.05;;;10.30;;
22679;SDS011;11507;44.858;10.374;2024-03-08T13:48:37;17.30;;;10.15;;
22679;SDS011;11507;44.858;10.374;2024-03-08T13:51:04;14.60;;;9.85;;
22679;SDS011;11507;44.858;10.374;2024-03-08T13:53:36;15.00;;;9.75;;
22679;SDS011;11507;44.858;10.374;2024-03-08T13:56:02;13.82;;;9.38;;
22679;SDS011;11507;44.858;10.374;2024-03-08T13:58:30;16.45;;;10.20;;
22679;SDS011;11507;44.858;10.374;2024-03-08T14:00:56;15.82;;;10.63;;
22679;SDS011;11507;44.858;10.374;2024-03-08T14:03:23;15.60;;;10.65;;
22679;SDS011;11507;44.858;10.374;2024-03-08T14:05:49;15.57;;;10.30;;
22679;SDS011;11507;44.858;10.374;2024-03-08T14:08:16;15.90;;;10.65;;
22679;SDS011;11507;44.858;10.374;2024-03-08T14:10:43;16.20;;;10.63;;
22679;SDS011;11507;44.858;10.374;2024-03-08T14:13:12;16.73;;;11.15;;
22679;SDS011;11507;44.858;10.374;2024-03-08T14:15:41;18.35;;;10.48;;
22679;SDS011;11507;44.858;10.374;2024-03-08T14:18:08;21.17;;;11.13;;
22679;SDS011;11507;44.858;10.374;2024-03-08T14:20:34;16.08;;;11.40;;
22679;SDS011;11507;44.858;10.374;2024-03-08T14:23:00;17.80;;;11.30;;
22679;SDS011;11507;44.858;10.374;2024-03-08T14:25:27;17.02;;;11.60;;
22679;SDS011;11507;44.858;10.374;2024-03-08T14:27:55;16.20;;;11.18;;
22679;SDS011;11507;44.858;10.374;2024-03-08T14:30:27;18.90;;;10.90;;